sensor_id;sensor_type;location;lat;lon;timestamp;P1;durP1;ratioP1;P2;durP2;ratioP2
1563;SDS011;775;51.958;7.976;2022-08-19T00:00:48;8.23;;;4.70;;
1563;SDS011;775;51.958;7.976;2022-08-19T00:03:17;6.90;;;4.30;;
1563;SDS011;775;51.958;7.976;2022-08-19T00:05:44;6.50;;;4.83;;
1563;SDS011;775;51.958;7.976;2022-08-19T00:08:11;11.30;;;5.33;;
1563;SDS011;775;51.958;7.976;2022-08-19T00:10:39;6.87;;;5.10;;
1563;SDS011;775;51.958;7.976;2022-08-19T00:13:06;9.30;;;6.03;;
1563;SDS011;775;51.958;7.976;2022-08-19T00:15:34;7.33;;;4.90;;
1563;SDS011;775;51.958;7.976;2022-08-19T00:18:01;6.60;;;4.33;;
1563;SDS011;775;51.958;7.976;2022-08-19T00:20:30;7.17;;;5.23;;
1563;SDS011;775;51.958;7.976;2022-08-19T00:22:57;9.17;;;5.23;;
1563;SDS011;775;51.958;7.976;2022-08-19T00:25:24;9.17;;;5.23;;
1563;SDS011;775;51.958;7.976;2022-08-19T00:27:52;7.50;;;4.67;;
1563;SDS011;775;51.958;7.976;2022-08-19T00:30:19;7.97;;;5.77;;
1563;SDS011;775;51.958;7.976;2022-08-19T00:32:46;7.83;;;5.53;;
1563;SDS011;775;51.958;7.976;2022-08-19T00:35:13;7.50;;;5.13;;
1563;SDS011;775;51.958;7.976;2022-08-19T00:37:42;6.70;;;4.60;;
1563;SDS011;775;51.958;7.976;2022-08-19T00:40:10;7.70;;;4.73;;
1563;SDS011;775;51.958;7.976;2022-08-19T00:42:38;7.37;;;4.67;;
1563;SDS011;775;51.958;7.976;2022-08-19T00:45:10;6.17;;;4.20;;
1563;SDS011;775;51.958;7.976;2022-08-19T00:47:38;7.30;;;4.87;;
1563;SDS011;775;51.958;7.976;2022-08-19T00:50:05;6.73;;;4.70;;
1563;SDS011;775;51.958;7.976;2022-08-19T00:52:35;7.30;;;4.97;;
1563;SDS011;775;51.958;7.976;2022-08-19T00:55:05;7.00;;;4.50;;
1563;SDS011;775;51.958;7.976;2022-08-19T00:57:35;6.90;;;4.73;;
1563;SDS011;775;51.958;7.976;2022-08-19T01:00:05;7.13;;;4.27;;
1563;SDS011;775;51.958;7.976;2022-08-19T01:02:32;8.27;;;4.53;;
1563;SDS011;775;51.958;7.976;2022-08-19T01:05:00;10.93;;;4.90;;
1563;SDS011;775;51.958;7.976;2022-08-19T01:07:27;10.17;;;5.47;;
1563;SDS011;775;51.958;7.976;2022-08-19T01:09:54;7.30;;;5.63;;
1563;SDS011;775;51.958;7.976;2022-08-19T01:12:23;6.87;;;4.80;;
1563;SDS011;775;51.958;7.976;2022-08-19T01:14:50;7.70;;;5.70;;
1563;SDS011;775;51.958;7.976;2022-08-19T01:17:18;8.00;;;5.07;;
1563;SDS011;775;51.958;7.976;2022-08-19T01:19:46;10.10;;;6.43;;
1563;SDS011;775;51.958;7.976;2022-08-19T01:22:14;7.97;;;5.50;;
1563;SDS011;775;51.958;7.976;2022-08-19T01:24:44;8.13;;;6.07;;
1563;SDS011;775;51.958;7.976;2022-08-19T01:27:11;9.97;;;5.90;;
1563;SDS011;775;51.958;7.976;2022-08-19T01:29:39;7.23;;;5.03;;
1563;SDS011;775;51.958;7.976;2022-08-19T01:32:07;11.93;;;6.00;;
1563;SDS011;775;51.958;7.976;2022-08-19T01:34:35;7.90;;;5.30;;
1563;SDS011;775;51.958;7.976;2022-08-19T01:37:05;10.43;;;6.60;;
1563;SDS011;775;51.958;7.976;2022-08-19T01:39:33;8.43;;;5.97;;
1563;SDS011;775;51.958;7.976;2022-08-19T01:42:02;9.07;;;5.20;;
1563;SDS011;775;51.958;7.976;2022-08-19T01:44:31;8.40;;;6.43;;
1563;SDS011;775;51.958;7.976;2022-08-19T01:46:58;7.50;;;5.83;;
1563;SDS011;775;51.958;7.976;2022-08-19T01:49:25;7.57;;;5.23;;
1563;SDS011;775;51.958;7.976;2022-08-19T01:51:53;7.50;;;5.20;;
1563;SDS011;775;51.958;7.976;2022-08-19T01:54:21;9.13;;;5.40;;
1563;SDS011;775;51.958;7.976;2022-08-19T01:56:49;8.40;;;5.40;;
1563;SDS011;775;51.958;7.976;2022-08-19T01:59:19;11.10;;;5.87;;
1563;SDS011;775;51.958;7.976;2022-08-19T02:01:47;8.40;;;5.67;;
1563;SDS011;775;51.958;7.976;2022-08-19T02:04:14;9.03;;;5.70;;
1563;SDS011;775;51.958;7.976;2022-08-19T02:06:41;7.33;;;5.40;;
1563;SDS011;775;51.958;7.976;2022-08-19T02:09:09;8.20;;;5.67;;
1563;SDS011;775;51.958;7.976;2022-08-19T02:11:37;10.13;;;5.93;;
1563;SDS011;775;51.958;7.976;2022-08-19T02:14:05;8.03;;;5.13;;
1563;SDS011;775;51.958;7.976;2022-08-19T02:16:34;6.97;;;5.30;;
1563;SDS011;775;51.958;7.976;2022-08-19T02:19:02;7.97;;;4.90;;
1563;SDS011;775;51.958;7.976;2022-08-19T02:21:29;9.83;;;6.40;;
1563;SDS011;775;51.958;7.976;2022-08-19T02:23:56;9.43;;;5.60;;
1563;SDS011;775;51.958;7.976;2022-08-19T02:26:24;9.43;;;5.93;;
1563;SDS011;775;51.958;7.976;2022-08-19T02:28:52;8.07;;;4.80;;
1563;SDS011;775;51.958;7.976;2022-08-19T02:31:21;8.40;;;5.20;;
1563;SDS011;775;51.958;7.976;2022-08-19T02:33:49;8.10;;;6.00;;
1563;SDS011;775;51.958;7.976;2022-08-19T02:36:17;9.17;;;6.30;;
1563;SDS011;775;51.958;7.976;2022-08-19T02:38:44;8.03;;;5.90;;
1563;SDS011;775;51.958;7.976;2022-08-19T02:41:11;7.83;;;5.97;;
1563;SDS011;775;51.958;7.976;2022-08-19T02:43:39;9.57;;;6.00;;
1563;SDS011;775;51.958;7.976;2022-08-19T02:46:11;8.90;;;5.80;;
1563;SDS011;775;51.958;7.976;2022-08-19T02:48:38;9.57;;;5.60;;
1563;SDS011;775;51.958;7.976;2022-08-19T02:51:06;7.90;;;5.20;;
1563;SDS011;775;51.958;7.976;2022-08-19T02:53:34;8.67;;;6.07;;
1563;SDS011;775;51.958;7.976;2022-08-19T02:56:05;7.30;;;5.37;;
1563;SDS011;775;51.958;7.976;2022-08-19T02:58:33;8.13;;;6.40;;
1563;SDS011;775;51.958;7.976;2022-08-19T03:01:00;10.27;;;5.57;;
1563;SDS011;775;51.958;7.976;2022-08-19T03:03:27;11.90;;;6.80;;
1563;SDS011;775;51.958;7.976;2022-08-19T03:06:05;8.13;;;5.90;;
1563;SDS011;775;51.958;7.976;2022-08-19T03:08:34;8.80;;;5.60;;
1563;SDS011;775;51.958;7.976;2022-08-19T03:11:02;8.10;;;6.00;;
1563;SDS011;775;51.958;7.976;2022-08-19T03:13:29;7.63;;;5.70;;
1563;SDS011;775;51.958;7.976;2022-08-19T03:15:56;8.33;;;6.23;;
1563;SDS011;775;51.958;7.976;2022-08-19T03:18:23;9.00;;;6.30;;
1563;SDS011;775;51.958;7.976;2022-08-19T03:20:51;8.67;;;6.40;;
1563;SDS011;775;51.958;7.976;2022-08-19T03:23:19;9.00;;;6.27;;
1563;SDS011;775;51.958;7.976;2022-08-19T03:25:49;10.67;;;5.70;;
1563;SDS011;775;51.958;7.976;2022-08-19T03:28:17;8.37;;;5.90;;
1563;SDS011;775;51.958;7.976;2022-08-19T03:30:54;10.43;;;6.77;;
1563;SDS011;775;51.958;7.976;2022-08-19T03:33:22;7.50;;;5.77;;
1563;SDS011;775;51.958;7.976;2022-08-19T03:35:59;8.77;;;6.37;;
1563;SDS011;775;51.958;7.976;2022-08-19T03:38:26;9.07;;;7.10;;
1563;SDS011;775;51.958;7.976;2022-08-19T03:40:54;9.83;;;7.70;;
1563;SDS011;775;51.958;7.976;2022-08-19T03:43:21;11.70;;;7.37;;
1563;SDS011;775;51.958;7.976;2022-08-19T03:45:49;12.03;;;6.87;;
1563;SDS011;775;51.958;7.976;2022-08-19T03:48:25;11.20;;;8.17;;
1563;SDS011;775;51.958;7.976;2022-08-19T03:50:53;8.23;;;7.13;;
1563;SDS011;775;51.958;7.976;2022-08-19T03:53:20;9.10;;;6.77;;
1563;SDS011;775;51.958;7.976;2022-08-19T03:55:47;11.73;;;7.60;;
1563;SDS011;775;51.958;7.976;2022-08-19T03:58:15;8.73;;;6.43;;
1563;SDS011;775;51.958;7.976;2022-08-19T04:00:44;10.53;;;7.63;;
1563;SDS011;775;51.958;7.976;2022-08-19T04:03:11;8.90;;;7.07;;
1563;SDS011;775;51.958;7.976;2022-08-19T04:05:38;9.70;;;6.60;;
1563;SDS011;775;51.958;7.976;2022-08-19T04:08:05;9.73;;;6.97;;
1563;SDS011;775;51.958;7.976;2022-08-19T04:10:34;11.33;;;6.60;;
1563;SDS011;775;51.958;7.976;2022-08-19T04:13:02;11.07;;;7.33;;
1563;SDS011;775;51.958;7.976;2022-08-19T04:15:31;10.63;;;7.30;;
1563;SDS011;775;51.958;7.976;2022-08-19T04:18:04;12.03;;;6.87;;
1563;SDS011;775;51.958;7.976;2022-08-19T04:20:32;9.37;;;6.23;;
1563;SDS011;775;51.958;7.976;2022-08-19T04:23:00;9.07;;;6.80;;
1563;SDS011;775;51.958;7.976;2022-08-19T04:25:27;11.37;;;7.77;;
1563;SDS011;775;51.958;7.976;2022-08-19T04:27:54;10.17;;;7.10;;
1563;SDS011;775;51.958;7.976;2022-08-19T04:30:21;9.97;;;6.80;;
1563;SDS011;775;51.958;7.976;2022-08-19T04:32:50;11.03;;;6.60;;
1563;SDS011;775;51.958;7.976;2022-08-19T04:35:17;8.73;;;6.60;;
1563;SDS011;775;51.958;7.976;2022-08-19T04:37:44;9.30;;;5.90;;
1563;SDS011;775;51.958;7.976;2022-08-19T04:40:11;10.23;;;6.30;;
1563;SDS011;775;51.958;7.976;2022-08-19T04:42:56;11.23;;;7.00;;
1563;SDS011;775;51.958;7.976;2022-08-19T04:45:23;12.47;;;7.17;;
1563;SDS011;775;51.958;7.976;2022-08-19T04:47:54;8.87;;;6.53;;
1563;SDS011;775;51.958;7.976;2022-08-19T04:50:22;11.57;;;7.27;;
1563;SDS011;775;51.958;7.976;2022-08-19T04:52:50;9.10;;;6.17;;
1563;SDS011;775;51.958;7.976;2022-08-19T04:55:17;9.90;;;7.00;;
1563;SDS011;775;51.958;7.976;2022-08-19T04:57:44;9.17;;;7.10;;
1563;SDS011;775;51.958;7.976;2022-08-19T05:00:12;11.13;;;8.10;;
1563;SDS011;775;51.958;7.976;2022-08-19T05:02:39;17.57;;;8.70;;
1563;SDS011;775;51.958;7.976;2022-08-19T05:05:08;16.03;;;8.20;;
1563;SDS011;775;51.958;7.976;2022-08-19T05:07:35;9.50;;;7.27;;
1563;SDS011;775;51.958;7.976;2022-08-19T05:10:03;9.30;;;7.40;;
1563;SDS011;775;51.958;7.976;2022-08-19T05:12:31;11.00;;;7.63;;
1563;SDS011;775;51.958;7.976;2022-08-19T05:14:58;14.80;;;7.17;;
1563;SDS011;775;51.958;7.976;2022-08-19T05:17:26;11.23;;;7.23;;
1563;SDS011;775;51.958;7.976;2022-08-19T05:19:54;12.30;;;8.33;;
1563;SDS011;775;51.958;7.976;2022-08-19T05:22:40;14.90;;;8.03;;
1563;SDS011;775;51.958;7.976;2022-08-19T05:25:08;19.53;;;9.27;;
1563;SDS011;775;51.958;7.976;2022-08-19T05:27:37;21.40;;;8.33;;
1563;SDS011;775;51.958;7.976;2022-08-19T05:30:05;15.40;;;7.87;;
1563;SDS011;775;51.958;7.976;2022-08-19T05:32:32;9.97;;;6.53;;
1563;SDS011;775;51.958;7.976;2022-08-19T05:34:59;14.50;;;7.93;;
1563;SDS011;775;51.958;7.976;2022-08-19T05:37:26;12.30;;;6.80;;
1563;SDS011;775;51.958;7.976;2022-08-19T05:39:55;10.00;;;7.37;;
1563;SDS011;775;51.958;7.976;2022-08-19T05:42:22;13.33;;;8.07;;
1563;SDS011;775;51.958;7.976;2022-08-19T05:44:50;11.10;;;7.03;;
1563;SDS011;775;51.958;7.976;2022-08-19T05:47:18;12.67;;;7.80;;
1563;SDS011;775;51.958;7.976;2022-08-19T05:49:45;18.07;;;9.47;;
1563;SDS011;775;51.958;7.976;2022-08-19T05:52:13;15.60;;;9.10;;
1563;SDS011;775;51.958;7.976;2022-08-19T05:54:41;12.20;;;8.90;;
1563;SDS011;775;51.958;7.976;2022-08-19T05:57:14;13.27;;;9.10;;
1563;SDS011;775;51.958;7.976;2022-08-19T05:59:41;16.00;;;9.47;;
1563;SDS011;775;51.958;7.976;2022-08-19T06:02:11;13.10;;;8.63;;
1563;SDS011;775;51.958;7.976;2022-08-19T06:04:39;12.80;;;9.37;;
1563;SDS011;775;51.958;7.976;2022-08-19T06:07:08;18.50;;;11.90;;
1563;SDS011;775;51.958;7.976;2022-08-19T06:09:35;16.50;;;10.77;;
1563;SDS011;775;51.958;7.976;2022-08-19T06:12:03;13.23;;;9.43;;
1563;SDS011;775;51.958;7.976;2022-08-19T06:14:32;11.07;;;9.83;;
1563;SDS011;775;51.958;7.976;2022-08-19T06:17:00;10.77;;;9.63;;
1563;SDS011;775;51.958;7.976;2022-08-19T06:19:27;12.37;;;9.27;;
1563;SDS011;775;51.958;7.976;2022-08-19T06:21:55;15.03;;;9.50;;
1563;SDS011;775;51.958;7.976;2022-08-19T06:24:23;14.80;;;10.17;;
1563;SDS011;775;51.958;7.976;2022-08-19T06:26:51;14.50;;;10.27;;
1563;SDS011;775;51.958;7.976;2022-08-19T06:29:19;13.90;;;9.13;;
1563;SDS011;775;51.958;7.976;2022-08-19T06:31:49;13.47;;;9.00;;
1563;SDS011;775;51.958;7.976;2022-08-19T06:34:17;16.03;;;9.80;;
1563;SDS011;775;51.958;7.976;2022-08-19T06:36:45;12.10;;;9.07;;
1563;SDS011;775;51.958;7.976;2022-08-19T06:39:13;14.77;;;9.53;;
1563;SDS011;775;51.958;7.976;2022-08-19T06:41:42;16.93;;;9.53;;
1563;SDS011;775;51.958;7.976;2022-08-19T06:44:10;14.40;;;9.30;;
1563;SDS011;775;51.958;7.976;2022-08-19T06:46:37;12.60;;;9.50;;
1563;SDS011;775;51.958;7.976;2022-08-19T06:49:06;15.67;;;9.50;;
1563;SDS011;775;51.958;7.976;2022-08-19T06:51:35;11.83;;;8.90;;
1563;SDS011;775;51.958;7.976;2022-08-19T06:54:04;13.93;;;9.53;;
1563;SDS011;775;51.958;7.976;2022-08-19T06:56:31;22.07;;;8.80;;
1563;SDS011;775;51.958;7.976;2022-08-19T06:58:59;13.70;;;9.70;;
1563;SDS011;775;51.958;7.976;2022-08-19T07:01:27;15.17;;;10.20;;
1563;SDS011;775;51.958;7.976;2022-08-19T07:03:54;15.40;;;9.70;;
1563;SDS011;775;51.958;7.976;2022-08-19T07:06:24;12.33;;;9.50;;
1563;SDS011;775;51.958;7.976;2022-08-19T07:08:51;11.13;;;8.40;;
1563;SDS011;775;51.958;7.976;2022-08-19T07:11:18;17.37;;;8.97;;
1563;SDS011;775;51.958;7.976;2022-08-19T07:13:45;12.33;;;8.63;;
1563;SDS011;775;51.958;7.976;2022-08-19T07:16:14;13.33;;;8.63;;
1563;SDS011;775;51.958;7.976;2022-08-19T07:18:42;12.97;;;8.03;;
1563;SDS011;775;51.958;7.976;2022-08-19T07:21:11;12.57;;;8.50;;
1563;SDS011;775;51.958;7.976;2022-08-19T07:23:40;12.57;;;8.23;;
1563;SDS011;775;51.958;7.976;2022-08-19T07:26:07;13.20;;;8.57;;
1563;SDS011;775;51.958;7.976;2022-08-19T07:28:35;12.30;;;7.57;;
1563;SDS011;775;51.958;7.976;2022-08-19T07:31:04;12.47;;;7.73;;
1563;SDS011;775;51.958;7.976;2022-08-19T07:33:31;16.70;;;9.03;;
1563;SDS011;775;51.958;7.976;2022-08-19T07:36:01;13.43;;;8.73;;
1563;SDS011;775;51.958;7.976;2022-08-19T07:38:29;14.93;;;7.70;;
1563;SDS011;775;51.958;7.976;2022-08-19T07:40:58;13.43;;;8.80;;
1563;SDS011;775;51.958;7.976;2022-08-19T07:43:25;12.37;;;8.40;;
1563;SDS011;775;51.958;7.976;2022-08-19T07:45:52;14.20;;;8.77;;
1563;SDS011;775;51.958;7.976;2022-08-19T07:48:21;12.17;;;8.43;;
1563;SDS011;775;51.958;7.976;2022-08-19T07:50:51;11.57;;;7.90;;
1563;SDS011;775;51.958;7.976;2022-08-19T07:53:18;12.23;;;7.30;;
1563;SDS011;775;51.958;7.976;2022-08-19T07:55:45;15.03;;;7.47;;
1563;SDS011;775;51.958;7.976;2022-08-19T07:58:14;12.57;;;8.03;;
1563;SDS011;775;51.958;7.976;2022-08-19T08:00:42;15.80;;;9.97;;
1563;SDS011;775;51.958;7.976;2022-08-19T08:03:10;12.20;;;7.77;;
1563;SDS011;775;51.958;7.976;2022-08-19T08:05:37;13.40;;;8.00;;
1563;SDS011;775;51.958;7.976;2022-08-19T08:08:22;15.13;;;9.20;;
1563;SDS011;775;51.958;7.976;2022-08-19T08:11:07;12.97;;;8.20;;
1563;SDS011;775;51.958;7.976;2022-08-19T08:13:37;12.50;;;7.80;;
1563;SDS011;775;51.958;7.976;2022-08-19T08:16:06;10.33;;;7.50;;
1563;SDS011;775;51.958;7.976;2022-08-19T08:18:33;12.77;;;8.33;;
1563;SDS011;775;51.958;7.976;2022-08-19T08:21:06;14.20;;;7.80;;
1563;SDS011;775;51.958;7.976;2022-08-19T08:23:34;12.70;;;9.90;;
1563;SDS011;775;51.958;7.976;2022-08-19T08:26:01;13.60;;;8.73;;
1563;SDS011;775;51.958;7.976;2022-08-19T08:28:29;16.30;;;7.70;;
1563;SDS011;775;51.958;7.976;2022-08-19T08:30:58;12.47;;;8.23;;
1563;SDS011;775;51.958;7.976;2022-08-19T08:33:26;14.03;;;9.23;;
1563;SDS011;775;51.958;7.976;2022-08-19T08:35:53;12.30;;;9.07;;
1563;SDS011;775;51.958;7.976;2022-08-19T08:38:21;14.30;;;9.10;;
1563;SDS011;775;51.958;7.976;2022-08-19T08:40:48;12.20;;;8.83;;
1563;SDS011;775;51.958;7.976;2022-08-19T08:43:21;12.97;;;9.60;;
1563;SDS011;775;51.958;7.976;2022-08-19T08:45:51;13.40;;;9.30;;
1563;SDS011;775;51.958;7.976;2022-08-19T08:48:22;13.07;;;9.60;;
1563;SDS011;775;51.958;7.976;2022-08-19T08:50:51;12.63;;;8.67;;
1563;SDS011;775;51.958;7.976;2022-08-19T08:53:21;14.23;;;8.80;;
1563;SDS011;775;51.958;7.976;2022-08-19T08:55:48;13.93;;;9.07;;
1563;SDS011;775;51.958;7.976;2022-08-19T08:58:17;12.37;;;9.03;;
1563;SDS011;775;51.958;7.976;2022-08-19T09:00:48;12.07;;;8.60;;
1563;SDS011;775;51.958;7.976;2022-08-19T09:03:17;12.20;;;9.07;;
1563;SDS011;775;51.958;7.976;2022-08-19T09:05:48;18.07;;;9.20;;
1563;SDS011;775;51.958;7.976;2022-08-19T09:08:19;12.93;;;9.53;;
1563;SDS011;775;51.958;7.976;2022-08-19T09:10:49;13.47;;;9.80;;
1563;SDS011;775;51.958;7.976;2022-08-19T09:13:18;13.17;;;9.40;;
1563;SDS011;775;51.958;7.976;2022-08-19T09:15:50;11.13;;;8.23;;
1563;SDS011;775;51.958;7.976;2022-08-19T09:18:18;12.30;;;8.30;;
1563;SDS011;775;51.958;7.976;2022-08-19T09:20:47;12.37;;;9.67;;
1563;SDS011;775;51.958;7.976;2022-08-19T09:23:14;13.20;;;9.07;;
1563;SDS011;775;51.958;7.976;2022-08-19T09:25:42;13.83;;;8.90;;
1563;SDS011;775;51.958;7.976;2022-08-19T09:28:09;11.33;;;8.07;;
1563;SDS011;775;51.958;7.976;2022-08-19T09:30:38;12.50;;;8.83;;
1563;SDS011;775;51.958;7.976;2022-08-19T09:33:06;11.57;;;6.23;;
1563;SDS011;775;51.958;7.976;2022-08-19T09:35:33;8.27;;;5.20;;
1563;SDS011;775;51.958;7.976;2022-08-19T09:38:02;11.57;;;6.40;;
1563;SDS011;775;51.958;7.976;2022-08-19T09:40:29;10.37;;;5.30;;
1563;SDS011;775;51.958;7.976;2022-08-19T09:42:57;8.97;;;5.50;;
1563;SDS011;775;51.958;7.976;2022-08-19T09:45:25;9.73;;;7.23;;
1563;SDS011;775;51.958;7.976;2022-08-19T09:47:52;7.87;;;5.23;;
1563;SDS011;775;51.958;7.976;2022-08-19T09:50:20;8.37;;;4.17;;
1563;SDS011;775;51.958;7.976;2022-08-19T09:52:47;6.87;;;4.17;;
1563;SDS011;775;51.958;7.976;2022-08-19T09:55:16;6.83;;;3.33;;
1563;SDS011;775;51.958;7.976;2022-08-19T09:57:43;7.63;;;3.53;;
1563;SDS011;775;51.958;7.976;2022-08-19T10:00:11;6.67;;;3.90;;
1563;SDS011;775;51.958;7.976;2022-08-19T10:02:38;6.50;;;3.97;;
1563;SDS011;775;51.958;7.976;2022-08-19T10:05:05;6.50;;;4.47;;
1563;SDS011;775;51.958;7.976;2022-08-19T10:07:50;6.77;;;3.60;;
1563;SDS011;775;51.958;7.976;2022-08-19T10:10:19;5.53;;;2.90;;
1563;SDS011;775;51.958;7.976;2022-08-19T10:12:46;5.97;;;3.00;;
1563;SDS011;775;51.958;7.976;2022-08-19T10:15:13;6.03;;;3.57;;
1563;SDS011;775;51.958;7.976;2022-08-19T10:17:41;5.40;;;3.43;;
1563;SDS011;775;51.958;7.976;2022-08-19T10:20:09;7.90;;;4.03;;
1563;SDS011;775;51.958;7.976;2022-08-19T10:22:36;6.33;;;3.90;;
1563;SDS011;775;51.958;7.976;2022-08-19T10:25:04;8.60;;;3.83;;
1563;SDS011;775;51.958;7.976;2022-08-19T10:27:33;7.47;;;4.50;;
1563;SDS011;775;51.958;7.976;2022-08-19T10:30:00;8.10;;;5.50;;
1563;SDS011;775;51.958;7.976;2022-08-19T10:32:27;6.33;;;4.37;;
1563;SDS011;775;51.958;7.976;2022-08-19T10:34:55;5.97;;;4.40;;
1563;SDS011;775;51.958;7.976;2022-08-19T10:37:22;7.67;;;5.53;;
1563;SDS011;775;51.958;7.976;2022-08-19T10:39:49;7.23;;;4.40;;
1563;SDS011;775;51.958;7.976;2022-08-19T10:42:17;7.20;;;4.47;;
1563;SDS011;775;51.958;7.976;2022-08-19T10:44:47;6.97;;;4.10;;
1563;SDS011;775;51.958;7.976;2022-08-19T10:47:15;8.93;;;4.20;;
1563;SDS011;775;51.958;7.976;2022-08-19T10:49:42;6.53;;;4.57;;
1563;SDS011;775;51.958;7.976;2022-08-19T10:52:27;7.10;;;4.70;;
1563;SDS011;775;51.958;7.976;2022-08-19T10:55:00;6.60;;;4.60;;
1563;SDS011;775;51.958;7.976;2022-08-19T10:57:45;6.77;;;4.17;;
1563;SDS011;775;51.958;7.976;2022-08-19T11:00:14;6.60;;;4.13;;
1563;SDS011;775;51.958;7.976;2022-08-19T11:02:42;7.07;;;4.50;;
1563;SDS011;775;51.958;7.976;2022-08-19T11:05:09;7.30;;;4.30;;
1563;SDS011;775;51.958;7.976;2022-08-19T11:07:37;8.60;;;4.90;;
1563;SDS011;775;51.958;7.976;2022-08-19T11:10:05;7.73;;;4.83;;
1563;SDS011;775;51.958;7.976;2022-08-19T11:12:32;7.43;;;4.60;;
1563;SDS011;775;51.958;7.976;2022-08-19T11:15:00;7.27;;;4.50;;
1563;SDS011;775;51.958;7.976;2022-08-19T11:17:28;8.40;;;3.97;;
1563;SDS011;775;51.958;7.976;2022-08-19T11:19:57;6.80;;;3.43;;
1563;SDS011;775;51.958;7.976;2022-08-19T11:22:29;5.60;;;3.17;;
1563;SDS011;775;51.958;7.976;2022-08-19T11:24:56;5.43;;;3.03;;
1563;SDS011;775;51.958;7.976;2022-08-19T11:27:23;6.33;;;3.30;;
1563;SDS011;775;51.958;7.976;2022-08-19T11:29:50;6.50;;;3.40;;
1563;SDS011;775;51.958;7.976;2022-08-19T11:32:18;5.63;;;2.80;;
1563;SDS011;775;51.958;7.976;2022-08-19T11:34:46;6.60;;;4.10;;
1563;SDS011;775;51.958;7.976;2022-08-19T11:37:13;5.50;;;3.37;;
1563;SDS011;775;51.958;7.976;2022-08-19T11:39:41;6.33;;;3.20;;
1563;SDS011;775;51.958;7.976;2022-08-19T11:42:08;5.97;;;2.97;;
1563;SDS011;775;51.958;7.976;2022-08-19T11:44:53;4.77;;;3.20;;
1563;SDS011;775;51.958;7.976;2022-08-19T11:47:20;5.63;;;3.53;;
1563;SDS011;775;51.958;7.976;2022-08-19T11:49:49;5.70;;;3.13;;
1563;SDS011;775;51.958;7.976;2022-08-19T11:52:18;5.70;;;3.53;;
1563;SDS011;775;51.958;7.976;2022-08-19T11:54:45;5.60;;;3.73;;
1563;SDS011;775;51.958;7.976;2022-08-19T11:57:13;5.23;;;3.50;;
1563;SDS011;775;51.958;7.976;2022-08-19T11:59:41;6.73;;;3.77;;
1563;SDS011;775;51.958;7.976;2022-08-19T12:02:09;9.67;;;4.57;;
1563;SDS011;775;51.958;7.976;2022-08-19T12:04:36;7.47;;;4.07;;
1563;SDS011;775;51.958;7.976;2022-08-19T12:07:05;6.93;;;4.03;;
1563;SDS011;775;51.958;7.976;2022-08-19T12:09:32;9.30;;;3.87;;
1563;SDS011;775;51.958;7.976;2022-08-19T12:12:00;6.80;;;3.93;;
1563;SDS011;775;51.958;7.976;2022-08-19T12:14:27;7.33;;;4.03;;
1563;SDS011;775;51.958;7.976;2022-08-19T12:16:56;5.10;;;2.90;;
1563;SDS011;775;51.958;7.976;2022-08-19T12:19:23;5.67;;;3.57;;
1563;SDS011;775;51.958;7.976;2022-08-19T12:21:51;6.00;;;3.90;;
1563;SDS011;775;51.958;7.976;2022-08-19T12:24:21;6.87;;;3.60;;
1563;SDS011;775;51.958;7.976;2022-08-19T12:26:49;6.40;;;3.63;;
1563;SDS011;775;51.958;7.976;2022-08-19T12:29:17;6.53;;;3.60;;
1563;SDS011;775;51.958;7.976;2022-08-19T12:31:44;5.30;;;3.50;;
1563;SDS011;775;51.958;7.976;2022-08-19T12:34:11;5.37;;;3.20;;
1563;SDS011;775;51.958;7.976;2022-08-19T12:36:38;5.73;;;3.90;;
1563;SDS011;775;51.958;7.976;2022-08-19T12:39:06;5.40;;;3.13;;
1563;SDS011;775;51.958;7.976;2022-08-19T12:41:34;6.40;;;3.80;;
1563;SDS011;775;51.958;7.976;2022-08-19T12:44:02;6.70;;;3.80;;
1563;SDS011;775;51.958;7.976;2022-08-19T12:46:30;5.80;;;3.60;;
1563;SDS011;775;51.958;7.976;2022-08-19T12:48:57;5.10;;;3.10;;
1563;SDS011;775;51.958;7.976;2022-08-19T12:51:25;5.90;;;3.13;;
1563;SDS011;775;51.958;7.976;2022-08-19T12:53:52;5.30;;;3.10;;
1563;SDS011;775;51.958;7.976;2022-08-19T12:56:19;4.70;;;3.00;;
1563;SDS011;775;51.958;7.976;2022-08-19T12:58:48;6.10;;;3.13;;
1563;SDS011;775;51.958;7.976;2022-08-19T13:01:15;5.60;;;3.27;;
1563;SDS011;775;51.958;7.976;2022-08-19T13:03:42;9.27;;;4.23;;
1563;SDS011;775;51.958;7.976;2022-08-19T13:06:11;5.57;;;3.73;;
1563;SDS011;775;51.958;7.976;2022-08-19T13:08:39;5.40;;;3.57;;
1563;SDS011;775;51.958;7.976;2022-08-19T13:11:07;5.47;;;2.90;;
1563;SDS011;775;51.958;7.976;2022-08-19T13:13:36;6.37;;;4.10;;
1563;SDS011;775;51.958;7.976;2022-08-19T13:16:07;5.23;;;3.50;;
1563;SDS011;775;51.958;7.976;2022-08-19T13:18:34;5.03;;;3.20;;
1563;SDS011;775;51.958;7.976;2022-08-19T13:21:02;7.10;;;3.70;;
1563;SDS011;775;51.958;7.976;2022-08-19T13:23:30;7.00;;;3.63;;
1563;SDS011;775;51.958;7.976;2022-08-19T13:25:57;5.97;;;3.77;;
1563;SDS011;775;51.958;7.976;2022-08-19T13:28:24;5.87;;;3.80;;
1563;SDS011;775;51.958;7.976;2022-08-19T13:31:15;7.37;;;4.50;;
1563;SDS011;775;51.958;7.976;2022-08-19T13:34:00;6.60;;;4.43;;
1563;SDS011;775;51.958;7.976;2022-08-19T13:36:27;7.27;;;4.90;;
1563;SDS011;775;51.958;7.976;2022-08-19T13:38:54;5.90;;;4.40;;
1563;SDS011;775;51.958;7.976;2022-08-19T13:41:22;6.80;;;5.17;;
1563;SDS011;775;51.958;7.976;2022-08-19T13:43:49;6.60;;;4.33;;
1563;SDS011;775;51.958;7.976;2022-08-19T13:46:18;7.30;;;5.80;;
1563;SDS011;775;51.958;7.976;2022-08-19T13:48:45;7.67;;;4.60;;
1563;SDS011;775;51.958;7.976;2022-08-19T13:51:13;6.60;;;4.57;;
1563;SDS011;775;51.958;7.976;2022-08-19T13:53:41;7.17;;;4.77;;
1563;SDS011;775;51.958;7.976;2022-08-19T13:56:09;11.30;;;4.80;;
1563;SDS011;775;51.958;7.976;2022-08-19T13:58:37;10.00;;;6.07;;
1563;SDS011;775;51.958;7.976;2022-08-19T14:01:05;6.93;;;4.93;;
1563;SDS011;775;51.958;7.976;2022-08-19T14:03:34;7.63;;;4.90;;
1563;SDS011;775;51.958;7.976;2022-08-19T14:06:01;10.63;;;4.97;;
1563;SDS011;775;51.958;7.976;2022-08-19T14:08:28;7.93;;;5.37;;
1563;SDS011;775;51.958;7.976;2022-08-19T14:10:57;7.37;;;4.00;;
1563;SDS011;775;51.958;7.976;2022-08-19T14:13:24;7.97;;;4.53;;
1563;SDS011;775;51.958;7.976;2022-08-19T14:15:51;8.60;;;4.93;;
1563;SDS011;775;51.958;7.976;2022-08-19T14:18:19;6.57;;;4.43;;
1563;SDS011;775;51.958;7.976;2022-08-19T14:20:48;7.47;;;4.80;;
1563;SDS011;775;51.958;7.976;2022-08-19T14:23:15;10.07;;;5.17;;
1563;SDS011;775;51.958;7.976;2022-08-19T14:25:42;7.50;;;5.57;;
1563;SDS011;775;51.958;7.976;2022-08-19T14:28:09;8.50;;;3.87;;
1563;SDS011;775;51.958;7.976;2022-08-19T14:30:37;5.40;;;3.80;;
1563;SDS011;775;51.958;7.976;2022-08-19T14:33:05;7.50;;;3.97;;
1563;SDS011;775;51.958;7.976;2022-08-19T14:35:33;8.03;;;4.53;;
1563;SDS011;775;51.958;7.976;2022-08-19T14:38:03;14.10;;;5.20;;
1563;SDS011;775;51.958;7.976;2022-08-19T14:40:30;9.33;;;4.40;;
1563;SDS011;775;51.958;7.976;2022-08-19T14:42:59;7.07;;;4.33;;
1563;SDS011;775;51.958;7.976;2022-08-19T14:45:29;12.03;;;5.10;;
1563;SDS011;775;51.958;7.976;2022-08-19T14:47:56;6.40;;;4.20;;
1563;SDS011;775;51.958;7.976;2022-08-19T14:50:24;19.07;;;6.00;;
1563;SDS011;775;51.958;7.976;2022-08-19T14:52:57;7.97;;;4.50;;
1563;SDS011;775;51.958;7.976;2022-08-19T14:55:25;7.27;;;4.47;;
1563;SDS011;775;51.958;7.976;2022-08-19T14:57:53;6.57;;;4.27;;
1563;SDS011;775;51.958;7.976;2022-08-19T15:00:20;6.87;;;4.67;;
1563;SDS011;775;51.958;7.976;2022-08-19T15:02:48;5.90;;;3.60;;
1563;SDS011;775;51.958;7.976;2022-08-19T15:05:15;6.43;;;3.93;;
1563;SDS011;775;51.958;7.976;2022-08-19T15:07:43;5.77;;;3.50;;
1563;SDS011;775;51.958;7.976;2022-08-19T15:10:11;5.30;;;3.30;;
1563;SDS011;775;51.958;7.976;2022-08-19T15:12:40;6.10;;;3.90;;
1563;SDS011;775;51.958;7.976;2022-08-19T15:15:08;6.20;;;4.13;;
1563;SDS011;775;51.958;7.976;2022-08-19T15:17:37;9.63;;;4.73;;
1563;SDS011;775;51.958;7.976;2022-08-19T15:20:06;8.20;;;4.90;;
1563;SDS011;775;51.958;7.976;2022-08-19T15:22:34;6.30;;;4.20;;
1563;SDS011;775;51.958;7.976;2022-08-19T15:25:02;7.40;;;4.47;;
1563;SDS011;775;51.958;7.976;2022-08-19T15:27:29;6.23;;;4.13;;
1563;SDS011;775;51.958;7.976;2022-08-19T15:29:58;6.53;;;4.60;;
1563;SDS011;775;51.958;7.976;2022-08-19T15:32:25;7.30;;;4.40;;